createdAt,value
2022-10-17T00:01:37.375Z,13.70
2022-10-17T00:04:04.353Z,13.60
2022-10-17T00:06:31.056Z,13.60
2022-10-17T00:08:57.774Z,13.60
2022-10-17T00:11:24.868Z,13.60
2022-10-17T00:13:54.653Z,13.70
2022-10-17T00:16:30.158Z,13.70
2022-10-17T00:18:57.401Z,13.70
2022-10-17T00:21:25.292Z,13.70
2022-10-17T00:23:52.448Z,13.70
2022-10-17T00:26:19.585Z,13.70
2022-10-17T00:28:50.921Z,13.70
2022-10-17T00:31:19.556Z,13.70
2022-10-17T00:33:47.203Z,13.70
2022-10-17T00:36:16.974Z,13.80
2022-10-17T00:38:46.317Z,13.80
2022-10-17T00:41:19.403Z,14.00
2022-10-17T00:43:53.337Z,14.00
2022-10-17T00:46:21.734Z,13.90
2022-10-17T00:48:50.982Z,13.90
2022-10-17T00:51:21.106Z,13.80
2022-10-17T00:53:48.257Z,13.80
2022-10-17T00:56:16.477Z,13.80
2022-10-17T00:58:43.239Z,13.90
2022-10-17T01:01:10.044Z,13.90
2022-10-17T01:03:36.958Z,14.00
2022-10-17T01:06:03.753Z,13.90
2022-10-17T01:08:30.608Z,13.80
2022-10-17T01:11:03.204Z,13.60
2022-10-17T01:13:53.050Z,13.50
2022-10-17T01:16:44.892Z,13.50
2022-10-17T01:19:44.597Z,13.50
2022-10-17T01:22:26.286Z,13.60
2022-10-17T01:25:17.848Z,13.60
2022-10-17T01:28:11.129Z,13.50
2022-10-17T01:30:49.211Z,13.50
2022-10-17T01:33:27.929Z,13.50
2022-10-17T01:36:01.715Z,13.60
2022-10-17T01:38:36.880Z,13.60
2022-10-17T01:41:12.368Z,13.60
2022-10-17T01:44:21.356Z,13.50
2022-10-17T01:46:51.826Z,13.40
2022-10-17T01:49:23.098Z,13.20
2022-10-17T01:52:04.828Z,13.20
2022-10-17T01:54:42.652Z,13.10
2022-10-17T01:57:28.060Z,13.00
2022-10-17T01:59:56.179Z,13.00
2022-10-17T02:02:24.793Z,12.80
2022-10-17T02:04:53.284Z,12.70
2022-10-17T02:07:20.027Z,12.70
2022-10-17T02:09:46.769Z,12.70
2022-10-17T02:12:24.974Z,12.60
2022-10-17T02:15:00.490Z,12.60
2022-10-17T02:17:56.995Z,12.60
2022-10-17T02:20:31.750Z,12.60
2022-10-17T02:24:00.047Z,12.60
2022-10-17T02:26:32.515Z,12.60
2022-10-17T02:29:08.621Z,12.50
2022-10-17T02:31:51.438Z,12.50
2022-10-17T02:34:24.917Z,12.50
2022-10-17T02:36:58.051Z,12.50
2022-10-17T02:39:27.022Z,12.50
2022-10-17T02:41:57.495Z,12.50
2022-10-17T02:44:25.111Z,12.60
2022-10-17T02:47:14.032Z,12.60
2022-10-17T02:49:44.803Z,12.60
2022-10-17T02:52:17.648Z,12.50
2022-10-17T02:55:06.238Z,12.50
2022-10-17T02:57:38.379Z,12.50
2022-10-17T03:00:08.790Z,12.50
2022-10-17T03:02:48.686Z,12.50
2022-10-17T03:05:19.489Z,12.50
2022-10-17T03:07:46.424Z,12.50
2022-10-17T03:10:13.330Z,12.60
2022-10-17T03:12:40.108Z,12.60
2022-10-17T03:15:07.367Z,12.60
2022-10-17T03:17:34.446Z,12.70
2022-10-17T03:20:01.399Z,12.50
2022-10-17T03:22:28.413Z,12.40
2022-10-17T03:24:55.272Z,12.40
2022-10-17T03:27:22.010Z,12.40
2022-10-17T03:29:48.707Z,12.30
2022-10-17T03:32:15.546Z,12.20
2022-10-17T03:34:42.419Z,12.10
2022-10-17T03:37:09.174Z,12.10
2022-10-17T03:39:35.920Z,12.10
2022-10-17T03:42:02.718Z,12.10
2022-10-17T03:44:29.419Z,12.10
2022-10-17T03:46:57.599Z,12.10
2022-10-17T03:49:24.368Z,12.10
2022-10-17T03:51:51.121Z,12.10
2022-10-17T03:54:17.916Z,12.00
2022-10-17T03:56:44.647Z,11.90
2022-10-17T03:59:15.374Z,11.80
2022-10-17T04:01:42.430Z,11.80
2022-10-17T04:04:09.967Z,11.80
2022-10-17T04:06:37.717Z,11.80
2022-10-17T04:09:05.492Z,11.70
2022-10-17T04:11:32.304Z,11.70
2022-10-17T04:13:59.699Z,11.60
2022-10-17T04:16:27.595Z,11.60
2022-10-17T04:18:59.143Z,11.60
2022-10-17T04:21:27.542Z,11.70
2022-10-17T04:23:59.566Z,11.80
2022-10-17T04:26:27.216Z,11.70
2022-10-17T04:28:53.959Z,11.70
2022-10-17T04:31:20.781Z,11.80
2022-10-17T04:33:49.015Z,11.80
2022-10-17T04:36:18.276Z,11.80
2022-10-17T04:38:45.222Z,11.90
2022-10-17T04:41:14.458Z,11.90
2022-10-17T04:43:41.315Z,11.80
2022-10-17T04:46:11.726Z,11.80
2022-10-17T04:48:39.227Z,11.90
2022-10-17T04:51:08.576Z,11.90
2022-10-17T04:53:37.782Z,11.80
2022-10-17T04:56:25.121Z,11.70
2022-10-17T04:58:52.427Z,11.60
2022-10-17T05:01:23.683Z,11.60
2022-10-17T05:03:51.196Z,11.60
2022-10-17T05:06:24.199Z,11.60
2022-10-17T05:08:51.329Z,11.60
2022-10-17T05:11:18.225Z,11.60
2022-10-17T05:13:45.199Z,11.50
2022-10-17T05:16:12.214Z,11.50
2022-10-17T05:18:38.902Z,11.50
2022-10-17T05:21:05.762Z,11.50
2022-10-17T05:23:32.894Z,11.40
2022-10-17T05:25:59.722Z,11.40
2022-10-17T05:28:26.507Z,11.40
2022-10-17T05:30:53.303Z,11.30
2022-10-17T05:33:20.191Z,11.40
2022-10-17T05:35:46.927Z,11.40
2022-10-17T05:38:13.751Z,11.30
2022-10-17T05:40:40.457Z,11.30
2022-10-17T05:43:07.199Z,11.20
2022-10-17T05:45:33.967Z,11.30
2022-10-17T05:48:00.639Z,11.30
2022-10-17T05:50:27.474Z,11.30
2022-10-17T05:52:55.060Z,11.30
2022-10-17T05:55:22.256Z,11.30
2022-10-17T05:57:49.943Z,11.30
2022-10-17T06:00:17.063Z,11.30
2022-10-17T06:02:46.030Z,11.40
2022-10-17T06:05:13.682Z,11.40
2022-10-17T06:07:40.943Z,11.40
2022-10-17T06:10:08.228Z,11.40
2022-10-17T06:12:34.914Z,11.40
2022-10-17T06:15:01.653Z,11.50
2022-10-17T06:17:29.186Z,11.50
2022-10-17T06:19:56.225Z,11.50
2022-10-17T06:22:23.181Z,11.50
2022-10-17T06:24:49.989Z,11.50
2022-10-17T06:27:16.663Z,11.60
2022-10-17T06:29:43.383Z,11.70
2022-10-17T06:32:12.734Z,11.70
2022-10-17T06:34:41.891Z,11.70
2022-10-17T06:37:08.673Z,11.70
2022-10-17T06:39:35.930Z,11.80
2022-10-17T06:42:03.934Z,11.90
2022-10-17T06:44:32.037Z,11.90
2022-10-17T06:46:59.966Z,12.00
2022-10-17T06:49:27.564Z,12.10
2022-10-17T06:51:54.420Z,12.20
2022-10-17T06:54:21.379Z,12.40
2022-10-17T06:56:48.301Z,12.50
2022-10-17T06:59:15.734Z,12.60
2022-10-17T07:01:46.069Z,12.80
2022-10-17T07:04:14.212Z,13.00
2022-10-17T07:06:40.968Z,13.30
2022-10-17T07:09:07.920Z,13.70
2022-10-17T07:11:37.775Z,14.00
2022-10-17T07:14:04.694Z,14.40
2022-10-17T07:16:31.663Z,14.80
2022-10-17T07:18:58.358Z,15.10
2022-10-17T07:21:25.612Z,15.30
2022-10-17T07:23:52.534Z,15.70
2022-10-17T07:26:19.759Z,16.00
2022-10-17T07:28:51.208Z,16.30
2022-10-17T07:31:19.583Z,16.60
2022-10-17T07:36:18.839Z,16.80
2022-10-17T07:38:45.699Z,17.10
2022-10-17T07:41:17.757Z,17.40
2022-10-17T07:43:47.639Z,17.70
2022-10-17T07:46:14.345Z,17.90
2022-10-17T07:48:41.405Z,18.00
2022-10-17T07:51:09.517Z,18.30
2022-10-17T07:53:38.081Z,18.50
2022-10-17T07:56:07.067Z,18.70
2022-10-17T07:58:34.389Z,19.00
2022-10-17T08:03:34.577Z,19.30
2022-10-17T08:06:02.314Z,19.60
2022-10-17T08:08:29.457Z,19.80
2022-10-17T08:11:05.995Z,20.10
2022-10-17T08:13:33.628Z,19.90
2022-10-17T08:16:05.742Z,20.00
2022-10-17T08:18:32.720Z,20.10
2022-10-17T08:21:01.082Z,20.20
2022-10-17T08:23:28.977Z,20.30
2022-10-17T08:25:58.656Z,20.40
2022-10-17T08:28:25.403Z,20.50
2022-10-17T08:30:52.189Z,20.50
2022-10-17T08:33:18.884Z,20.60
2022-10-17T08:35:45.607Z,20.60
2022-10-17T08:38:13.426Z,20.60
2022-10-17T08:40:42.869Z,20.50
2022-10-17T08:43:18.364Z,20.30
2022-10-17T08:45:54.784Z,20.40
2022-10-17T08:48:25.451Z,20.30
2022-10-17T08:51:16.623Z,20.30
2022-10-17T08:53:55.675Z,20.20
2022-10-17T08:59:17.778Z,20.10
2022-10-17T09:02:00.294Z,20.00
2022-10-17T09:04:46.114Z,19.90
2022-10-17T09:07:26.350Z,20.10
2022-10-17T09:09:59.320Z,20.00
2022-10-17T09:12:44.183Z,20.00
2022-10-17T09:15:37.033Z,20.00
2022-10-17T09:18:09.801Z,19.90
2022-10-17T09:20:53.973Z,20.00
2022-10-17T09:23:25.111Z,20.10
2022-10-17T09:25:58.361Z,20.20
2022-10-17T09:28:35.791Z,20.30
2022-10-17T09:31:22.569Z,20.40
2022-10-17T09:33:55.426Z,20.60
2022-10-17T09:36:24.458Z,20.80
2022-10-17T09:39:04.666Z,21.00
2022-10-17T09:41:46.377Z,21.10
2022-10-17T09:44:19.556Z,21.40
2022-10-17T09:47:20.475Z,21.80
2022-10-17T09:49:48.691Z,22.20
2022-10-17T09:52:20.904Z,22.30
2022-10-17T09:54:51.956Z,22.50
2022-10-17T09:57:20.687Z,22.80
2022-10-17T09:59:56.933Z,23.10
2022-10-17T10:02:25.384Z,23.20
2022-10-17T10:05:16.286Z,23.50
2022-10-17T10:07:46.046Z,23.70
2022-10-17T10:10:28.178Z,23.90
2022-10-17T10:13:16.160Z,24.20
2022-10-17T10:15:45.782Z,24.40
2022-10-17T10:18:36.075Z,24.70
2022-10-17T10:21:21.554Z,24.80
2022-10-17T10:24:19.337Z,24.80
2022-10-17T10:26:50.890Z,24.90
2022-10-17T10:29:41.535Z,25.00
2022-10-17T10:32:30.657Z,25.00
2022-10-17T10:35:18.961Z,24.90
2022-10-17T10:37:50.828Z,24.90
2022-10-17T10:40:49.865Z,25.00
2022-10-17T10:43:42.937Z,24.90
2022-10-17T10:46:36.300Z,24.80
2022-10-17T10:49:03.364Z,24.50
2022-10-17T10:51:41.368Z,24.20
2022-10-17T10:54:34.262Z,23.90
2022-10-17T10:57:05.046Z,23.50
2022-10-17T10:59:47.432Z,23.50
2022-10-17T11:02:26.843Z,23.50
2022-10-17T11:04:59.474Z,23.40
2022-10-17T11:07:28.913Z,23.50
2022-10-17T11:10:00.688Z,23.40
2022-10-17T11:12:30.346Z,23.20
2022-10-17T11:15:21.704Z,23.20
2022-10-17T11:17:59.351Z,23.20
2022-10-17T11:20:30.326Z,23.20
2022-10-17T11:23:19.736Z,23.10
2022-10-17T11:25:53.565Z,23.20
2022-10-17T11:28:22.261Z,23.10
2022-10-17T11:31:03.364Z,23.20
2022-10-17T11:33:50.618Z,23.20
2022-10-17T11:36:21.085Z,23.20
2022-10-17T11:39:00.177Z,23.30
2022-10-17T11:41:46.199Z,23.20
2022-10-17T11:44:22.061Z,23.20
2022-10-17T11:46:54.633Z,23.30
2022-10-17T11:52:03.143Z,23.30
2022-10-17T11:54:38.161Z,23.40
2022-10-17T11:57:29.562Z,23.40
2022-10-17T12:00:18.270Z,23.40
2022-10-17T12:03:21.631Z,23.50
2022-10-17T12:06:11.965Z,23.40
2022-10-17T12:08:52.030Z,23.40
2022-10-17T12:11:50.769Z,23.30
2022-10-17T12:14:46.649Z,23.40
2022-10-17T12:17:39.312Z,23.40
2022-10-17T12:20:21.722Z,23.40
2022-10-17T12:22:50.478Z,23.30
2022-10-17T12:25:24.049Z,23.30
2022-10-17T12:27:51.274Z,23.30
2022-10-17T12:30:19.685Z,23.40
2022-10-17T12:33:06.091Z,23.40
2022-10-17T12:35:35.604Z,23.30
2022-10-17T12:38:04.181Z,23.30
2022-10-17T12:40:37.185Z,23.40
2022-10-17T12:43:29.561Z,23.30
2022-10-17T12:45:57.156Z,23.30
2022-10-17T12:48:39.505Z,23.30
2022-10-17T12:54:15.127Z,23.30
2022-10-17T12:56:45.326Z,23.20
2022-10-17T12:59:17.412Z,23.20
2022-10-17T13:01:47.466Z,23.10
2022-10-17T13:04:15.492Z,23.00
2022-10-17T13:06:48.152Z,23.00
2022-10-17T13:09:30.761Z,23.00
2022-10-17T13:12:00.826Z,23.00
2022-10-17T13:14:28.480Z,22.90
2022-10-17T13:16:59.611Z,22.90
2022-10-17T13:19:30.668Z,22.90
2022-10-17T13:22:06.767Z,22.90
2022-10-17T13:24:37.869Z,23.00
2022-10-17T13:27:06.691Z,22.90
2022-10-17T13:29:33.623Z,22.90
2022-10-17T13:32:05.479Z,22.90
2022-10-17T13:34:34.021Z,22.80
2022-10-17T13:37:07.015Z,22.80
2022-10-17T13:39:55.833Z,22.80
2022-10-17T13:42:27.706Z,22.90
2022-10-17T13:44:56.082Z,22.90
2022-10-17T13:47:25.809Z,22.90
2022-10-17T13:49:55.478Z,22.90
2022-10-17T13:52:25.777Z,22.80
2022-10-17T13:54:53.825Z,22.90
2022-10-17T13:57:29.655Z,22.90
2022-10-17T13:59:59.637Z,22.90
2022-10-17T14:02:30.853Z,22.90
2022-10-17T14:05:18.947Z,22.90
2022-10-17T14:08:13.361Z,22.80
2022-10-17T14:10:43.575Z,22.80
2022-10-17T14:13:28.285Z,22.80
2022-10-17T14:15:57.793Z,22.80
2022-10-17T14:18:36.185Z,22.80
2022-10-17T14:21:40.515Z,22.80
2022-10-17T14:24:11.474Z,22.70
2022-10-17T14:26:54.375Z,22.70
2022-10-17T14:29:25.716Z,22.80
2022-10-17T14:32:05.119Z,22.70
2022-10-17T14:34:40.795Z,22.70
2022-10-17T14:37:13.134Z,22.70
2022-10-17T14:39:40.107Z,22.60
2022-10-17T14:42:07.157Z,22.60
2022-10-17T14:44:36.356Z,22.60
2022-10-17T14:47:30.673Z,22.50
2022-10-17T14:50:18.859Z,22.50
2022-10-17T14:53:00.353Z,22.50
2022-10-17T14:55:29.835Z,22.40
2022-10-17T14:57:56.657Z,22.40
2022-10-17T15:00:23.901Z,22.30
2022-10-17T15:02:52.676Z,22.20
2022-10-17T15:05:20.448Z,22.20
2022-10-17T15:07:47.445Z,22.20
2022-10-17T15:10:34.020Z,22.10
2022-10-17T15:13:26.515Z,22.10
2022-10-17T15:15:51.906Z,22.00
2022-10-17T15:18:18.937Z,22.00
2022-10-17T15:20:45.621Z,21.90
2022-10-17T15:23:12.324Z,21.90
2022-10-17T15:25:39.575Z,21.80
2022-10-17T15:28:06.533Z,21.80
2022-10-17T15:30:36.333Z,21.80
2022-10-17T15:33:03.115Z,21.80
2022-10-17T15:35:30.267Z,21.70
2022-10-17T15:37:57.202Z,21.60
2022-10-17T15:40:29.198Z,21.50
2022-10-17T15:42:56.465Z,21.50
2022-10-17T15:45:23.860Z,21.50
2022-10-17T15:47:58.776Z,21.50
2022-10-17T15:50:25.559Z,21.40
2022-10-17T15:52:52.557Z,21.40
2022-10-17T15:55:19.970Z,21.30
2022-10-17T15:57:48.747Z,21.20
2022-10-17T16:00:33.708Z,21.20
2022-10-17T16:03:00.557Z,21.10
2022-10-17T16:05:28.508Z,21.00
2022-10-17T16:07:55.839Z,21.00
2022-10-17T16:10:23.423Z,20.90
2022-10-17T16:12:50.652Z,20.90
2022-10-17T16:15:23.646Z,20.80
2022-10-17T16:17:51.969Z,20.80
2022-10-17T16:20:19.824Z,20.70
2022-10-17T16:22:47.254Z,20.70
2022-10-17T16:25:25.285Z,20.60
2022-10-17T16:27:54.933Z,20.50
2022-10-17T16:32:55.498Z,20.30
2022-10-17T16:35:25.013Z,20.20
2022-10-17T16:37:51.759Z,20.10
2022-10-17T16:40:18.669Z,20.10
2022-10-17T16:42:45.648Z,20.00
2022-10-17T16:45:20.606Z,19.80
2022-10-17T16:47:47.971Z,19.70
2022-10-17T16:50:15.089Z,19.70
2022-10-17T16:52:42.393Z,19.60
2022-10-17T16:55:10.018Z,19.50
2022-10-17T16:57:36.916Z,19.50
2022-10-17T17:00:05.959Z,19.40
2022-10-17T17:02:33.066Z,19.10
2022-10-17T17:05:00.008Z,18.90
2022-10-17T17:07:29.362Z,18.70
2022-10-17T17:09:56.639Z,18.60
2022-10-17T17:12:23.368Z,18.50
2022-10-17T17:14:50.898Z,18.30
2022-10-17T17:17:30.365Z,18.20
2022-10-17T17:20:06.348Z,18.10
2022-10-17T17:22:33.167Z,18.00
2022-10-17T17:24:59.845Z,17.90
2022-10-17T17:27:28.898Z,17.80
2022-10-17T17:29:55.980Z,17.70
2022-10-17T17:32:22.721Z,17.60
2022-10-17T17:34:49.625Z,17.60
2022-10-17T17:37:16.363Z,17.60
2022-10-17T17:39:43.085Z,17.60
2022-10-17T17:42:09.822Z,17.50
2022-10-17T17:44:36.548Z,17.40
2022-10-17T17:47:03.278Z,17.40
2022-10-17T17:49:30.361Z,17.30
2022-10-17T17:51:57.167Z,17.20
2022-10-17T17:54:23.964Z,17.20
2022-10-17T17:56:50.736Z,17.00
2022-10-17T17:59:17.439Z,17.00
2022-10-17T18:01:44.396Z,17.00
2022-10-17T18:04:11.958Z,16.90
2022-10-17T18:06:39.615Z,16.90
2022-10-17T18:09:08.036Z,16.80
2022-10-17T18:11:35.579Z,16.80
2022-10-17T18:14:05.229Z,16.90
2022-10-17T18:16:33.650Z,16.90
2022-10-17T18:19:06.622Z,16.80
2022-10-17T18:21:34.252Z,16.80
2022-10-17T18:24:00.995Z,16.60
2022-10-17T18:26:28.368Z,16.70
2022-10-17T18:28:55.361Z,16.60
2022-10-17T18:31:28.637Z,16.60
2022-10-17T18:33:57.780Z,16.50
2022-10-17T18:36:26.199Z,16.50
2022-10-17T18:38:54.091Z,16.40
2022-10-17T18:41:23.134Z,16.30
2022-10-17T18:43:51.202Z,16.20
2022-10-17T18:46:20.495Z,16.20
2022-10-17T18:48:48.487Z,16.20
2022-10-17T18:51:16.992Z,16.30
2022-10-17T18:53:45.391Z,16.20
2022-10-17T18:56:13.241Z,16.20
2022-10-17T18:58:40.757Z,16.20
2022-10-17T19:01:15.382Z,16.20
2022-10-17T19:03:43.137Z,16.20
2022-10-17T19:06:11.338Z,16.20
2022-10-17T19:08:38.674Z,16.20
2022-10-17T19:11:10.616Z,16.10
2022-10-17T19:13:37.990Z,16.00
2022-10-17T19:16:09.561Z,15.90
2022-10-17T19:18:36.805Z,15.90
2022-10-17T19:21:05.400Z,15.70
2022-10-17T19:23:32.729Z,15.80
2022-10-17T19:26:09.009Z,15.80
2022-10-17T19:28:37.824Z,15.80
2022-10-17T19:31:06.368Z,15.80
2022-10-17T19:33:33.984Z,15.80
2022-10-17T19:36:11.633Z,15.70
2022-10-17T19:38:38.387Z,15.50
2022-10-17T19:41:07.152Z,15.50
2022-10-17T19:43:36.963Z,15.50
2022-10-17T19:46:05.507Z,15.50
2022-10-17T19:48:34.455Z,15.50
2022-10-17T19:51:01.147Z,15.40
2022-10-17T19:53:29.367Z,15.30
2022-10-17T19:55:57.290Z,15.20
2022-10-17T19:58:25.414Z,15.20
2022-10-17T20:00:55.399Z,15.30
2022-10-17T20:03:22.882Z,15.20
2022-10-17T20:05:49.619Z,15.30
2022-10-17T20:08:17.566Z,15.30
2022-10-17T20:10:44.641Z,15.20
2022-10-17T20:13:11.625Z,15.10
2022-10-17T20:15:38.923Z,15.20
2022-10-17T20:18:06.524Z,15.20
2022-10-17T20:20:36.826Z,15.30
2022-10-17T20:23:04.382Z,15.40
2022-10-17T20:25:33.318Z,15.40
2022-10-17T20:28:00.118Z,15.50
2022-10-17T20:30:26.903Z,15.50
2022-10-17T20:32:55.605Z,15.50
2022-10-17T20:35:22.736Z,15.50
2022-10-17T20:37:49.671Z,15.50
2022-10-17T20:40:34.116Z,15.40
2022-10-17T20:43:01.277Z,15.40
2022-10-17T20:45:43.601Z,15.30
2022-10-17T20:48:15.704Z,15.10
2022-10-17T20:50:43.686Z,15.00
2022-10-17T20:53:35.515Z,15.00
2022-10-17T20:56:09.313Z,15.10
2022-10-17T20:58:36.326Z,15.20
2022-10-17T21:01:10.165Z,15.20
2022-10-17T21:03:41.037Z,15.20
2022-10-17T21:06:11.250Z,15.30
2022-10-17T21:08:38.220Z,15.30
2022-10-17T21:11:28.577Z,15.30
2022-10-17T21:14:00.588Z,15.40
2022-10-17T21:16:28.388Z,15.50
2022-10-17T21:18:56.063Z,15.40
2022-10-17T21:21:28.479Z,15.40
2022-10-17T21:23:58.629Z,15.20
2022-10-17T21:26:25.324Z,15.10
2022-10-17T21:28:52.369Z,15.20
2022-10-17T21:31:23.736Z,15.20
2022-10-17T21:33:53.334Z,15.20
2022-10-17T21:36:20.551Z,15.10
2022-10-17T21:38:49.562Z,15.00
2022-10-17T21:41:21.871Z,15.10
2022-10-17T21:43:52.272Z,15.10
2022-10-17T21:46:19.694Z,15.10
2022-10-17T21:48:47.953Z,15.20
2022-10-17T21:51:17.531Z,15.20
2022-10-17T21:53:44.740Z,15.20
2022-10-17T21:56:18.089Z,15.10
2022-10-17T21:58:45.256Z,15.00
2022-10-17T22:01:17.715Z,14.90
2022-10-17T22:03:49.389Z,14.80
2022-10-17T22:06:38.566Z,14.70
2022-10-17T22:09:07.288Z,14.70
2022-10-17T22:11:35.504Z,14.60
2022-10-17T22:14:06.241Z,14.60
2022-10-17T22:16:34.444Z,14.60
2022-10-17T22:19:06.138Z,14.70
2022-10-17T22:21:35.008Z,14.80
2022-10-17T22:24:04.327Z,14.80
2022-10-17T22:26:32.801Z,14.70
2022-10-17T22:28:59.940Z,14.50
2022-10-17T22:31:26.914Z,14.50
2022-10-17T22:33:53.640Z,14.40
2022-10-17T22:36:20.328Z,14.40
2022-10-17T22:38:47.148Z,14.40
2022-10-17T22:41:13.893Z,14.30
2022-10-17T22:43:40.663Z,14.40
2022-10-17T22:46:07.857Z,14.30
2022-10-17T22:48:35.282Z,14.30
2022-10-17T22:51:02.022Z,14.30
2022-10-17T22:53:29.833Z,14.30
2022-10-17T22:56:01.825Z,14.30
2022-10-17T22:58:29.888Z,14.30
2022-10-17T23:00:57.480Z,14.10
2022-10-17T23:03:26.388Z,14.10
2022-10-17T23:05:53.188Z,14.10
2022-10-17T23:08:20.588Z,14.10
2022-10-17T23:10:47.980Z,14.00
2022-10-17T23:13:15.523Z,14.00
2022-10-17T23:15:43.365Z,13.90
2022-10-17T23:18:10.240Z,13.90
2022-10-17T23:20:37.881Z,13.90
2022-10-17T23:23:05.165Z,13.90
2022-10-17T23:25:34.208Z,13.90
2022-10-17T23:28:01.343Z,13.80
2022-10-17T23:30:28.521Z,13.80
2022-10-17T23:32:55.232Z,13.70
2022-10-17T23:35:21.992Z,13.80
2022-10-17T23:37:48.688Z,13.70
2022-10-17T23:40:15.471Z,13.80
2022-10-17T23:42:42.373Z,13.70
2022-10-17T23:45:09.532Z,13.70
2022-10-17T23:47:36.287Z,13.60
2022-10-17T23:50:03.999Z,13.60
2022-10-17T23:52:31.043Z,13.60
2022-10-17T23:54:57.987Z,13.70
2022-10-17T23:57:24.744Z,13.70
2022-10-17T23:59:51.461Z,13.60
